createdAt,value
2022-12-12T00:01:33.867Z,-0.30
2022-12-12T00:04:01.808Z,-0.30
2022-12-12T00:06:29.249Z,-0.30
2022-12-12T00:08:56.653Z,-0.20
2022-12-12T00:11:24.274Z,-0.20
2022-12-12T00:13:51.496Z,-0.20
2022-12-12T00:16:18.894Z,-0.20
2022-12-12T00:18:46.427Z,-0.20
2022-12-12T00:21:19.261Z,-0.30
2022-12-12T00:23:47.146Z,-0.30
2022-12-12T00:26:24.152Z,-0.30
2022-12-12T00:28:51.491Z,-0.30
2022-12-12T00:31:19.127Z,-0.30
2022-12-12T00:33:50.488Z,-0.30
2022-12-12T00:36:23.840Z,-0.30
2022-12-12T00:38:53.994Z,-0.30
2022-12-12T00:41:22.086Z,-0.30
2022-12-12T00:43:49.491Z,-0.30
2022-12-12T00:46:18.817Z,-0.30
2022-12-12T00:48:46.234Z,-0.30
2022-12-12T00:51:20.377Z,-0.30
2022-12-12T00:53:48.647Z,-0.30
2022-12-12T00:56:16.985Z,-0.30
2022-12-12T00:58:44.076Z,-0.30
2022-12-12T01:01:13.863Z,-0.30
2022-12-12T01:03:42.374Z,-0.30
2022-12-12T01:06:09.926Z,-0.30
2022-12-12T01:08:37.909Z,-0.30
2022-12-12T01:11:05.656Z,-0.30
2022-12-12T01:13:33.036Z,-0.30
2022-12-12T01:16:00.033Z,-0.30
2022-12-12T01:18:28.241Z,-0.30
2022-12-12T01:20:55.174Z,-0.30
2022-12-12T01:23:22.064Z,-0.20
2022-12-12T01:25:49.371Z,-0.20
2022-12-12T01:28:16.547Z,-0.20
2022-12-12T01:30:43.673Z,-0.20
2022-12-12T01:33:11.021Z,-0.20
2022-12-12T01:35:38.178Z,-0.20
2022-12-12T01:38:05.148Z,-0.20
2022-12-12T01:40:34.946Z,-0.20
2022-12-12T01:43:01.879Z,-0.20
2022-12-12T01:46:20.219Z,-0.20
2022-12-12T01:48:52.354Z,-0.20
2022-12-12T01:51:23.954Z,-0.20
2022-12-12T01:53:54.432Z,-0.20
2022-12-12T01:56:21.819Z,-0.20
2022-12-12T01:58:50.818Z,-0.20
2022-12-12T02:01:19.497Z,-0.20
2022-12-12T02:03:49.122Z,-0.20
2022-12-12T02:06:22.429Z,-0.20
2022-12-12T02:08:53.142Z,-0.20
2022-12-12T02:11:20.086Z,-0.20
2022-12-12T02:13:47.362Z,-0.20
2022-12-12T02:16:59.232Z,-0.20
2022-12-12T02:20:13.671Z,-0.20
2022-12-12T02:23:24.245Z,-0.20
2022-12-12T02:26:26.350Z,-0.20
2022-12-12T02:29:07.646Z,-0.20
2022-12-12T02:32:03.240Z,-0.20
2022-12-12T02:35:01.633Z,-0.20
2022-12-12T02:37:44.762Z,-0.20
2022-12-12T02:40:44.898Z,-0.20
2022-12-12T02:43:34.769Z,-0.20
2022-12-12T02:46:23.471Z,-0.20
2022-12-12T02:49:17.044Z,-0.20
2022-12-12T02:51:46.044Z,-0.20
2022-12-12T02:54:19.243Z,-0.20
2022-12-12T02:56:58.018Z,-0.20
2022-12-12T02:59:37.283Z,-0.20
2022-12-12T03:02:40.380Z,-0.30
2022-12-12T03:06:09.506Z,-0.30
2022-12-12T03:09:13.742Z,-0.30
2022-12-12T03:12:34.056Z,-0.30
2022-12-12T03:16:00.901Z,-0.30
2022-12-12T03:18:44.976Z,-0.30
2022-12-12T03:21:22.929Z,-0.30
2022-12-12T03:23:54.362Z,-0.30
2022-12-12T03:27:07.369Z,-0.30
2022-12-12T03:30:01.907Z,-0.30
2022-12-12T03:33:10.945Z,-0.30
2022-12-12T03:35:46.986Z,-0.30
2022-12-12T03:38:25.385Z,-0.30
2022-12-12T03:40:57.045Z,-0.30
2022-12-12T03:43:30.802Z,-0.30
2022-12-12T03:46:17.425Z,-0.30
2022-12-12T03:49:10.942Z,-0.40
2022-12-12T03:51:47.095Z,-0.40
2022-12-12T03:54:47.242Z,-0.30
2022-12-12T03:57:29.466Z,-0.30
2022-12-12T04:00:07.845Z,-0.30
2022-12-12T04:02:43.327Z,-0.30
2022-12-12T04:05:28.408Z,-0.30
2022-12-12T04:08:15.655Z,-0.30
2022-12-12T04:11:10.044Z,-0.40
2022-12-12T04:14:19.165Z,-0.40
2022-12-12T04:16:48.549Z,-0.40
2022-12-12T04:19:53.719Z,-0.40
2022-12-12T04:22:43.262Z,-0.40
2022-12-12T04:25:32.155Z,-0.40
2022-12-12T04:28:05.566Z,-0.40
2022-12-12T04:30:35.732Z,-0.40
2022-12-12T04:33:09.219Z,-0.40
2022-12-12T04:35:46.124Z,-0.40
2022-12-12T04:38:18.697Z,-0.40
2022-12-12T04:40:53.506Z,-0.30
2022-12-12T04:43:27.640Z,-0.30
2022-12-12T04:45:58.659Z,-0.30
2022-12-12T04:48:53.725Z,-0.30
2022-12-12T04:51:29.029Z,-0.30
2022-12-12T04:54:32.251Z,-0.30
2022-12-12T04:57:02.701Z,-0.30
2022-12-12T04:59:32.344Z,-0.30
2022-12-12T05:02:18.330Z,-0.30
2022-12-12T05:05:10.551Z,-0.20
2022-12-12T05:07:40.605Z,-0.20
2022-12-12T05:10:14.943Z,-0.20
2022-12-12T05:12:52.252Z,-0.20
2022-12-12T05:15:21.668Z,-0.20
2022-12-12T05:17:54.421Z,-0.20
2022-12-12T05:20:21.823Z,-0.20
2022-12-12T05:22:48.876Z,-0.20
2022-12-12T05:25:16.269Z,-0.20
2022-12-12T05:27:45.548Z,-0.20
2022-12-12T05:30:15.578Z,-0.20
2022-12-12T05:32:42.763Z,-0.20
2022-12-12T05:35:15.812Z,-0.20
2022-12-12T05:37:46.699Z,-0.20
2022-12-12T05:40:16.892Z,-0.20
2022-12-12T05:42:46.321Z,-0.20
2022-12-12T05:45:13.490Z,-0.30
2022-12-12T05:47:43.549Z,-0.30
2022-12-12T05:50:10.858Z,-0.20
2022-12-12T05:52:37.845Z,-0.30
2022-12-12T05:55:05.608Z,-0.30
2022-12-12T05:57:32.582Z,-0.30
2022-12-12T05:59:59.446Z,-0.30
2022-12-12T06:02:26.529Z,-0.30
2022-12-12T06:04:53.744Z,-0.30
2022-12-12T06:07:21.085Z,-0.30
2022-12-12T06:09:48.027Z,-0.40
2022-12-12T06:12:14.869Z,-0.30
2022-12-12T06:14:41.766Z,-0.30
2022-12-12T06:17:08.671Z,-0.40
2022-12-12T06:19:35.816Z,-0.40
2022-12-12T06:22:02.705Z,-0.40
2022-12-12T06:24:29.654Z,-0.40
2022-12-12T06:26:56.625Z,-0.40
2022-12-12T06:29:23.728Z,-0.40
2022-12-12T06:31:50.883Z,-0.40
2022-12-12T06:34:18.037Z,-0.40
2022-12-12T06:36:45.200Z,-0.40
2022-12-12T06:39:13.395Z,-0.40
2022-12-12T06:41:40.449Z,-0.40
2022-12-12T06:44:07.626Z,-0.40
2022-12-12T06:46:34.919Z,-0.40
2022-12-12T06:49:03.113Z,-0.40
2022-12-12T06:51:36.331Z,-0.40
2022-12-12T06:54:03.675Z,-0.40
2022-12-12T06:56:31.237Z,-0.40
2022-12-12T06:59:02.387Z,-0.30
2022-12-12T07:01:29.406Z,-0.40
2022-12-12T07:03:56.685Z,-0.40
2022-12-12T07:06:23.986Z,-0.40
2022-12-12T07:08:52.338Z,-0.40
2022-12-12T07:11:25.262Z,-0.40
2022-12-12T07:13:52.957Z,-0.30
2022-12-12T07:16:20.209Z,-0.40
2022-12-12T07:18:48.499Z,-0.40
2022-12-12T07:21:18.817Z,-0.30
2022-12-12T07:23:45.907Z,-0.30
2022-12-12T07:26:21.800Z,-0.30
2022-12-12T07:28:49.683Z,-0.30
2022-12-12T07:31:25.391Z,-0.30
2022-12-12T07:33:54.512Z,-0.30
2022-12-12T07:36:21.406Z,-0.40
2022-12-12T07:38:48.601Z,-0.30
2022-12-12T07:41:18.687Z,-0.30
2022-12-12T07:43:46.304Z,-0.30
2022-12-12T07:46:17.165Z,-0.30
2022-12-12T07:48:44.829Z,-0.30
2022-12-12T07:51:12.223Z,-0.30
2022-12-12T07:53:39.222Z,-0.30
2022-12-12T07:56:08.115Z,-0.30
2022-12-12T07:58:35.693Z,-0.30
2022-12-12T08:01:18.293Z,-0.30
2022-12-12T08:03:46.597Z,-0.20
2022-12-12T08:06:14.246Z,-0.20
2022-12-12T08:08:41.154Z,-0.20
2022-12-12T08:11:10.232Z,-0.20
2022-12-12T08:13:38.605Z,-0.20
2022-12-12T08:16:07.680Z,-0.10
2022-12-12T08:18:34.871Z,-0.20
2022-12-12T08:21:01.905Z,-0.10
2022-12-12T08:23:28.843Z,-0.10
2022-12-12T08:25:55.846Z,-0.10
2022-12-12T08:28:22.759Z,-0.10
2022-12-12T08:30:51.774Z,0.00
2022-12-12T08:33:21.374Z,0.00
2022-12-12T08:35:48.345Z,0.10
2022-12-12T08:38:15.238Z,0.10
2022-12-12T08:40:42.481Z,0.10
2022-12-12T08:43:10.444Z,0.10
2022-12-12T08:45:40.335Z,0.10
2022-12-12T08:48:07.701Z,0.10
2022-12-12T08:50:34.854Z,0.10
2022-12-12T08:53:01.734Z,0.10
2022-12-12T08:55:28.800Z,0.10
2022-12-12T08:57:56.443Z,0.10
2022-12-12T09:00:23.918Z,0.10
2022-12-12T09:02:50.897Z,0.10
2022-12-12T09:05:17.864Z,0.10
2022-12-12T09:07:47.576Z,0.10
2022-12-12T09:10:14.738Z,0.20
2022-12-12T09:12:42.264Z,0.20
2022-12-12T09:15:09.916Z,0.20
2022-12-12T09:17:37.068Z,0.30
2022-12-12T09:20:04.557Z,0.30
2022-12-12T09:22:31.809Z,0.30
2022-12-12T09:24:58.714Z,0.30
2022-12-12T09:27:25.638Z,0.30
2022-12-12T09:29:52.592Z,0.40
2022-12-12T09:32:24.817Z,0.40
2022-12-12T09:34:52.745Z,0.50
2022-12-12T09:37:19.875Z,0.60
2022-12-12T09:39:46.908Z,0.60
2022-12-12T09:42:29.037Z,0.80
2022-12-12T09:45:05.353Z,0.80
2022-12-12T09:48:01.495Z,0.90
2022-12-12T09:50:39.354Z,0.90
2022-12-12T09:53:16.352Z,0.90
2022-12-12T09:56:21.413Z,1.00
2022-12-12T09:59:15.000Z,1.00
2022-12-12T10:02:09.736Z,1.00
2022-12-12T10:04:57.931Z,0.90
2022-12-12T10:07:42.182Z,0.80
2022-12-12T10:10:34.352Z,0.80
2022-12-12T10:13:04.806Z,0.80
2022-12-12T10:15:39.429Z,0.80
2022-12-12T10:18:23.398Z,0.80
2022-12-12T10:20:55.622Z,0.80
2022-12-12T10:23:51.604Z,0.90
2022-12-12T10:26:28.067Z,0.90
2022-12-12T10:29:08.904Z,1.00
2022-12-12T10:32:04.151Z,1.00
2022-12-12T10:35:11.198Z,1.10
2022-12-12T10:38:37.480Z,1.20
2022-12-12T10:41:17.799Z,1.20
2022-12-12T10:44:00.630Z,1.40
2022-12-12T10:47:01.415Z,1.40
2022-12-12T10:49:29.231Z,1.40
2022-12-12T10:51:57.904Z,1.40
2022-12-12T10:54:27.608Z,1.30
2022-12-12T10:57:20.154Z,1.30
2022-12-12T10:59:53.466Z,1.20
2022-12-12T11:02:38.980Z,1.20
2022-12-12T11:05:18.465Z,1.20
2022-12-12T11:07:48.521Z,1.10
2022-12-12T11:10:41.451Z,1.10
2022-12-12T11:13:17.253Z,1.20
2022-12-12T11:15:56.724Z,1.20
2022-12-12T11:18:24.744Z,1.20
2022-12-12T11:20:56.787Z,1.20
2022-12-12T11:23:26.021Z,1.00
2022-12-12T11:26:02.505Z,1.00
2022-12-12T11:28:37.893Z,1.00
2022-12-12T11:31:11.436Z,1.00
2022-12-12T11:33:45.738Z,1.00
2022-12-12T11:36:22.135Z,1.00
2022-12-12T11:38:57.312Z,0.90
2022-12-12T11:41:24.639Z,0.80
2022-12-12T11:43:56.049Z,0.80
2022-12-12T11:46:41.130Z,0.80
2022-12-12T11:49:18.728Z,0.80
2022-12-12T11:51:46.072Z,0.80
2022-12-12T11:54:33.226Z,0.80
2022-12-12T11:57:25.458Z,0.80
2022-12-12T12:00:23.247Z,0.80
2022-12-12T12:03:25.812Z,0.90
2022-12-12T12:06:51.052Z,0.90
2022-12-12T12:09:56.670Z,0.90
2022-12-12T12:12:52.610Z,0.90
2022-12-12T12:15:54.793Z,0.90
2022-12-12T12:18:41.919Z,0.90
2022-12-12T12:21:43.788Z,1.00
2022-12-12T12:24:55.100Z,1.00
2022-12-12T12:28:06.772Z,1.10
2022-12-12T12:31:01.169Z,1.30
2022-12-12T12:34:09.688Z,1.20
2022-12-12T12:37:19.784Z,1.30
2022-12-12T12:40:15.534Z,1.30
2022-12-12T12:43:24.098Z,1.30
2022-12-12T12:45:59.952Z,1.40
2022-12-12T12:48:43.792Z,1.30
2022-12-12T12:51:59.420Z,1.30
2022-12-12T12:54:37.395Z,1.30
2022-12-12T12:57:16.298Z,1.30
2022-12-12T12:59:50.889Z,1.30
2022-12-12T13:03:05.042Z,1.30
2022-12-12T13:05:39.972Z,1.30
2022-12-12T13:08:51.422Z,1.30
2022-12-12T13:11:34.529Z,1.30
2022-12-12T13:14:37.600Z,1.30
2022-12-12T13:17:08.003Z,1.30
2022-12-12T13:19:42.512Z,1.30
2022-12-12T13:22:34.692Z,1.20
2022-12-12T13:25:14.749Z,1.20
2022-12-12T13:27:46.290Z,1.20
2022-12-12T13:30:56.189Z,1.20
2022-12-12T13:33:48.596Z,1.20
2022-12-12T13:36:29.088Z,1.20
2022-12-12T13:38:59.562Z,1.20
2022-12-12T13:41:26.544Z,1.20
2022-12-12T13:44:01.506Z,1.10
2022-12-12T13:46:38.268Z,1.10
2022-12-12T13:49:23.550Z,1.10
2022-12-12T13:51:52.577Z,1.10
2022-12-12T13:54:39.409Z,1.10
2022-12-12T13:57:24.512Z,1.10
2022-12-12T14:00:16.501Z,1.00
2022-12-12T14:02:55.327Z,1.00
2022-12-12T14:05:30.028Z,1.00
2022-12-12T14:08:20.403Z,1.00
2022-12-12T14:10:55.912Z,1.00
2022-12-12T14:13:43.145Z,1.00
2022-12-12T14:16:25.995Z,1.00
2022-12-12T14:19:02.189Z,1.00
2022-12-12T14:21:42.730Z,1.00
2022-12-12T14:24:54.845Z,1.00
2022-12-12T14:28:10.983Z,0.90
2022-12-12T14:30:49.725Z,0.90
2022-12-12T14:34:09.313Z,0.90
2022-12-12T14:36:50.745Z,0.90
2022-12-12T14:39:57.623Z,0.90
2022-12-12T14:43:22.118Z,0.90
2022-12-12T14:45:49.802Z,0.90
2022-12-12T14:48:31.772Z,0.90
2022-12-12T14:51:29.269Z,0.80
2022-12-12T14:53:58.865Z,0.80
2022-12-12T14:56:36.798Z,0.80
2022-12-12T14:59:08.120Z,0.80
2022-12-12T15:01:47.392Z,0.80
2022-12-12T15:04:29.065Z,0.80
2022-12-12T15:06:58.743Z,0.80
2022-12-12T15:09:33.486Z,0.70
2022-12-12T15:12:16.287Z,0.70
2022-12-12T15:15:22.196Z,0.70
2022-12-12T15:17:50.909Z,0.70
2022-12-12T15:20:22.774Z,0.70
2022-12-12T15:23:05.576Z,0.70
2022-12-12T15:25:36.606Z,0.70
2022-12-12T15:28:04.203Z,0.60
2022-12-12T15:30:45.068Z,0.60
2022-12-12T15:33:26.857Z,0.60
2022-12-12T15:36:03.167Z,0.60
2022-12-12T15:38:32.233Z,0.60
2022-12-12T15:41:01.736Z,0.60
2022-12-12T15:43:31.556Z,0.50
2022-12-12T15:46:14.317Z,0.50
2022-12-12T15:48:46.349Z,0.40
2022-12-12T15:51:15.578Z,0.40
2022-12-12T15:53:51.345Z,0.30
2022-12-12T15:56:36.351Z,0.20
2022-12-12T15:59:27.254Z,0.10
2022-12-12T16:01:54.356Z,0.00
2022-12-12T16:04:26.220Z,0.00
2022-12-12T16:06:53.199Z,0.00
2022-12-12T16:09:22.495Z,-0.10
2022-12-12T16:11:56.278Z,-0.10
2022-12-12T16:14:42.417Z,-0.20
2022-12-12T16:17:25.743Z,-0.40
2022-12-12T16:20:05.350Z,-0.50
2022-12-12T16:22:46.833Z,-0.50
2022-12-12T16:25:40.176Z,-0.70
2022-12-12T16:28:27.667Z,-0.70
2022-12-12T16:31:03.439Z,-0.80
2022-12-12T16:33:38.734Z,-0.80
2022-12-12T16:36:10.967Z,-0.90
2022-12-12T16:38:40.420Z,-1.00
2022-12-12T16:41:12.779Z,-1.20
2022-12-12T16:43:40.240Z,-1.30
2022-12-12T16:46:13.551Z,-1.40
2022-12-12T16:48:40.542Z,-1.40
2022-12-12T16:51:09.631Z,-1.30
2022-12-12T16:53:37.304Z,-1.30
2022-12-12T16:56:05.188Z,-1.30
2022-12-12T16:58:33.212Z,-1.50
2022-12-12T17:01:01.771Z,-1.50
2022-12-12T17:03:30.559Z,-1.50
2022-12-12T17:05:59.154Z,-1.50
2022-12-12T17:08:26.863Z,-1.40
2022-12-12T17:11:10.120Z,-1.30
2022-12-12T17:13:41.442Z,-1.30
2022-12-12T17:16:08.895Z,-1.20
2022-12-12T17:18:35.856Z,-1.10
2022-12-12T17:21:04.119Z,-1.20
2022-12-12T17:23:30.973Z,-1.20
2022-12-12T17:26:03.685Z,-1.10
2022-12-12T17:28:35.183Z,-1.00
2022-12-12T17:31:09.462Z,-1.00
2022-12-12T17:33:45.840Z,-1.10
2022-12-12T17:36:17.622Z,-1.10
2022-12-12T17:38:44.584Z,-1.10
2022-12-12T17:41:12.801Z,-1.10
2022-12-12T17:43:41.461Z,-1.20
2022-12-12T17:46:14.914Z,-1.20
2022-12-12T17:48:44.230Z,-1.20
2022-12-12T17:51:14.885Z,-1.20
2022-12-12T17:53:41.823Z,-1.20
2022-12-12T17:56:16.795Z,-1.20
2022-12-12T17:58:46.036Z,-1.30
2022-12-12T18:01:26.336Z,-1.40
2022-12-12T18:03:53.953Z,-1.60
2022-12-12T18:06:22.651Z,-1.60
2022-12-12T18:09:02.631Z,-1.60
2022-12-12T18:11:36.248Z,-1.60
2022-12-12T18:14:06.753Z,-1.50
2022-12-12T18:16:36.243Z,-1.40
2022-12-12T18:19:03.495Z,-1.40
2022-12-12T18:24:21.448Z,-1.60
2022-12-12T18:26:53.745Z,-1.70
2022-12-12T18:29:21.084Z,-1.70
2022-12-12T18:31:48.602Z,-1.70
2022-12-12T18:34:15.901Z,-1.70
2022-12-12T18:36:44.368Z,-1.70
2022-12-12T18:39:11.717Z,-1.70
2022-12-12T18:41:38.711Z,-1.70
2022-12-12T18:44:07.418Z,-1.80
2022-12-12T18:46:42.247Z,-1.80
2022-12-12T18:49:13.174Z,-1.70
2022-12-12T18:51:40.119Z,-1.70
2022-12-12T18:54:12.709Z,-1.80
2022-12-12T18:56:42.419Z,-1.80
2022-12-12T18:59:09.408Z,-1.80
2022-12-12T19:01:36.603Z,-1.80
2022-12-12T19:04:12.203Z,-1.80
2022-12-12T19:06:41.453Z,-1.90
2022-12-12T19:09:13.104Z,-1.90
2022-12-12T19:11:40.602Z,-2.00
2022-12-12T19:14:08.586Z,-1.90
2022-12-12T19:16:35.613Z,-1.80
2022-12-12T19:19:09.431Z,-1.80
2022-12-12T19:21:37.733Z,-1.80
2022-12-12T19:24:09.174Z,-1.80
2022-12-12T19:26:38.737Z,-1.80
2022-12-12T19:29:08.791Z,-1.80
2022-12-12T19:31:36.665Z,-1.90
2022-12-12T19:34:06.658Z,-1.90
2022-12-12T19:36:34.230Z,-1.90
2022-12-12T19:39:01.779Z,-1.90
2022-12-12T19:41:29.271Z,-2.00
2022-12-12T19:43:58.470Z,-2.00
2022-12-12T19:46:27.366Z,-2.00
2022-12-12T19:48:59.675Z,-2.00
2022-12-12T19:51:28.333Z,-2.00
2022-12-12T19:53:59.533Z,-2.00
2022-12-12T19:56:30.283Z,-2.00
2022-12-12T19:58:57.901Z,-2.10
2022-12-12T20:01:30.557Z,-2.10
2022-12-12T20:04:12.894Z,-2.10
2022-12-12T20:06:46.081Z,-2.10
2022-12-12T20:09:19.003Z,-2.20
2022-12-12T20:11:46.086Z,-2.20
2022-12-12T20:14:20.425Z,-2.30
2022-12-12T20:16:47.965Z,-2.30
2022-12-12T20:19:16.354Z,-2.30
2022-12-12T20:22:02.047Z,-2.40
2022-12-12T20:24:30.765Z,-2.40
2022-12-12T20:27:00.020Z,-2.30
2022-12-12T20:29:27.556Z,-2.30
2022-12-12T20:31:54.999Z,-2.30
2022-12-12T20:34:24.627Z,-2.30
2022-12-12T20:36:55.110Z,-2.30
2022-12-12T20:39:22.704Z,-2.30
2022-12-12T20:41:50.655Z,-2.30
2022-12-12T20:44:18.702Z,-2.40
2022-12-12T20:46:47.209Z,-2.50
2022-12-12T20:49:19.295Z,-2.50
2022-12-12T20:51:56.310Z,-2.40
2022-12-12T20:54:25.276Z,-2.50
2022-12-12T20:56:53.367Z,-2.50
2022-12-12T20:59:20.474Z,-2.50
2022-12-12T21:01:47.835Z,-2.50
2022-12-12T21:04:16.446Z,-2.50
2022-12-12T21:06:48.800Z,-2.50
2022-12-12T21:09:23.330Z,-2.40
2022-12-12T21:11:53.204Z,-2.40
2022-12-12T21:14:20.130Z,-2.50
2022-12-12T21:16:49.023Z,-2.50
2022-12-12T21:19:18.977Z,-2.70
2022-12-12T21:21:46.260Z,-2.90
2022-12-12T21:24:14.874Z,-3.10
2022-12-12T21:26:42.218Z,-3.30
2022-12-12T21:29:09.815Z,-3.40
2022-12-12T21:31:48.099Z,-3.50
2022-12-12T21:34:20.395Z,-3.60
2022-12-12T21:36:50.704Z,-3.70
2022-12-12T21:39:17.867Z,-3.70
2022-12-12T21:41:44.793Z,-3.80
2022-12-12T21:44:11.986Z,-3.90
2022-12-12T21:46:42.080Z,-3.80
2022-12-12T21:49:26.933Z,-3.80
2022-12-12T21:51:57.549Z,-3.80
2022-12-12T21:54:24.748Z,-3.90
2022-12-12T21:56:54.125Z,-3.90
2022-12-12T21:59:21.165Z,-4.00
2022-12-12T22:01:48.215Z,-4.00
2022-12-12T22:04:15.342Z,-4.00
2022-12-12T22:06:44.904Z,-4.00
2022-12-12T22:09:14.008Z,-4.10
2022-12-12T22:11:47.594Z,-4.10
2022-12-12T22:14:19.163Z,-4.10
2022-12-12T22:16:46.452Z,-4.20
2022-12-12T22:19:16.825Z,-4.20
2022-12-12T22:21:47.099Z,-4.20
2022-12-12T22:24:17.101Z,-4.30
2022-12-12T22:26:47.331Z,-4.30
2022-12-12T22:29:20.330Z,-4.20
2022-12-12T22:31:50.494Z,-4.20
2022-12-12T22:34:20.341Z,-4.30
2022-12-12T22:36:47.928Z,-4.40
2022-12-12T22:39:18.367Z,-4.40
2022-12-12T22:41:46.165Z,-4.60
2022-12-12T22:44:15.984Z,-4.60
2022-12-12T22:46:45.617Z,-4.50
2022-12-12T22:49:15.536Z,-4.40
2022-12-12T22:51:43.822Z,-4.40
2022-12-12T22:54:11.467Z,-4.40
2022-12-12T22:56:39.698Z,-4.40
2022-12-12T22:59:08.787Z,-4.40
2022-12-12T23:01:35.796Z,-4.40
2022-12-12T23:04:02.990Z,-4.50
2022-12-12T23:06:34.277Z,-4.40
2022-12-12T23:09:05.258Z,-4.40
2022-12-12T23:11:33.685Z,-4.40
2022-12-12T23:14:06.770Z,-4.50
2022-12-12T23:16:35.737Z,-4.60
2022-12-12T23:19:08.766Z,-4.70
2022-12-12T23:21:38.359Z,-4.80
2022-12-12T23:24:06.376Z,-4.90
2022-12-12T23:26:35.859Z,-4.90
2022-12-12T23:29:05.537Z,-4.80
2022-12-12T23:31:34.640Z,-4.70
2022-12-12T23:34:08.173Z,-4.70
2022-12-12T23:36:35.438Z,-4.70
2022-12-12T23:39:07.083Z,-4.70
2022-12-12T23:41:36.753Z,-4.80
2022-12-12T23:44:04.644Z,-4.80
2022-12-12T23:46:33.628Z,-4.90
2022-12-12T23:49:26.830Z,-5.00
2022-12-12T23:51:57.102Z,-5.10
2022-12-12T23:54:32.158Z,-5.30
2022-12-12T23:57:00.026Z,-5.40
2022-12-12T23:59:27.518Z,-5.50
